sensor_id;sensor_type;location;lat;lon;timestamp;P1;durP1;ratioP1;P2;durP2;ratioP2
71144;SDS011;58812;47.698;17.726;2023-02-28T00:01:07;0.50;;;0.10;;
71144;SDS011;58812;47.698;17.726;2023-02-28T00:03:32;0.70;;;0.40;;
71144;SDS011;58812;47.698;17.726;2023-02-28T00:06:01;0.50;;;0.10;;
71144;SDS011;58812;47.698;17.726;2023-02-28T00:08:30;0.50;;;0.10;;
71144;SDS011;58812;47.698;17.726;2023-02-28T00:10:55;0.97;;;0.70;;
71144;SDS011;58812;47.698;17.726;2023-02-28T00:13:21;0.50;;;0.10;;
71144;SDS011;58812;47.698;17.726;2023-02-28T00:15:46;1.00;;;0.60;;
71144;SDS011;58812;47.698;17.726;2023-02-28T00:18:12;0.60;;;0.10;;
71144;SDS011;58812;47.698;17.726;2023-02-28T00:20:38;0.50;;;0.10;;
71144;SDS011;58812;47.698;17.726;2023-02-28T00:23:04;0.70;;;0.20;;
71144;SDS011;58812;47.698;17.726;2023-02-28T00:25:29;0.30;;;0.10;;
71144;SDS011;58812;47.698;17.726;2023-02-28T00:27:55;0.60;;;0.20;;
71144;SDS011;58812;47.698;17.726;2023-02-28T00:30:21;0.60;;;0.10;;
71144;SDS011;58812;47.698;17.726;2023-02-28T00:32:48;0.83;;;0.50;;
71144;SDS011;58812;47.698;17.726;2023-02-28T00:35:14;1.10;;;0.85;;
71144;SDS011;58812;47.698;17.726;2023-02-28T00:37:40;0.80;;;0.22;;
71144;SDS011;58812;47.698;17.726;2023-02-28T00:40:06;0.50;;;0.10;;
71144;SDS011;58812;47.698;17.726;2023-02-28T00:42:32;0.70;;;0.22;;
71144;SDS011;58812;47.698;17.726;2023-02-28T00:44:58;0.70;;;0.17;;
71144;SDS011;58812;47.698;17.726;2023-02-28T00:47:24;0.60;;;0.13;;
71144;SDS011;58812;47.698;17.726;2023-02-28T00:49:49;0.80;;;0.47;;
71144;SDS011;58812;47.698;17.726;2023-02-28T00:52:14;0.40;;;0.10;;
71144;SDS011;58812;47.698;17.726;2023-02-28T00:54:40;0.60;;;0.20;;
71144;SDS011;58812;47.698;17.726;2023-02-28T00:57:05;0.70;;;0.20;;
71144;SDS011;58812;47.698;17.726;2023-02-28T00:59:31;1.25;;;1.00;;
71144;SDS011;58812;47.698;17.726;2023-02-28T01:01:56;0.50;;;0.10;;
71144;SDS011;58812;47.698;17.726;2023-02-28T01:04:22;0.70;;;0.10;;
71144;SDS011;58812;47.698;17.726;2023-02-28T01:06:47;0.60;;;0.10;;
71144;SDS011;58812;47.698;17.726;2023-02-28T01:09:13;0.50;;;0.10;;
71144;SDS011;58812;47.698;17.726;2023-02-28T01:11:38;0.53;;;0.20;;
71144;SDS011;58812;47.698;17.726;2023-02-28T01:14:06;1.50;;;1.15;;
71144;SDS011;58812;47.698;17.726;2023-02-28T01:16:32;0.50;;;0.10;;
71144;SDS011;58812;47.698;17.726;2023-02-28T01:18:57;0.70;;;0.20;;
71144;SDS011;58812;47.698;17.726;2023-02-28T01:21:24;0.30;;;0.10;;
71144;SDS011;58812;47.698;17.726;2023-02-28T01:23:50;0.75;;;0.47;;
71144;SDS011;58812;47.698;17.726;2023-02-28T01:26:16;0.40;;;0.10;;
71144;SDS011;58812;47.698;17.726;2023-02-28T01:28:44;0.87;;;0.63;;
71144;SDS011;58812;47.698;17.726;2023-02-28T01:31:10;0.50;;;0.10;;
71144;SDS011;58812;47.698;17.726;2023-02-28T01:33:36;0.75;;;0.20;;
71144;SDS011;58812;47.698;17.726;2023-02-28T01:36:04;0.73;;;0.40;;
71144;SDS011;58812;47.698;17.726;2023-02-28T01:38:32;0.70;;;0.37;;
71144;SDS011;58812;47.698;17.726;2023-02-28T01:40:59;1.00;;;0.90;;
71144;SDS011;58812;47.698;17.726;2023-02-28T01:43:28;0.70;;;0.68;;
71144;SDS011;58812;47.698;17.726;2023-02-28T01:45:56;0.45;;;0.10;;
71144;SDS011;58812;47.698;17.726;2023-02-28T01:48:24;0.62;;;0.20;;
71144;SDS011;58812;47.698;17.726;2023-02-28T01:50:52;0.73;;;0.63;;
71144;SDS011;58812;47.698;17.726;2023-02-28T01:53:23;0.62;;;0.20;;
71144;SDS011;58812;47.698;17.726;2023-02-28T01:55:55;1.40;;;1.23;;
71144;SDS011;58812;47.698;17.726;2023-02-28T01:58:21;0.43;;;0.10;;
71144;SDS011;58812;47.698;17.726;2023-02-28T02:00:47;1.15;;;0.80;;
71144;SDS011;58812;47.698;17.726;2023-02-28T02:03:14;2.23;;;2.10;;
71144;SDS011;58812;47.698;17.726;2023-02-28T02:05:46;0.50;;;0.10;;
71144;SDS011;58812;47.698;17.726;2023-02-28T02:08:13;0.73;;;0.20;;
71144;SDS011;58812;47.698;17.726;2023-02-28T02:10:43;0.73;;;0.20;;
71144;SDS011;58812;47.698;17.726;2023-02-28T02:21:38;0.60;;;0.20;;
71144;SDS011;58812;47.698;17.726;2023-02-28T02:35:31;0.60;;;0.10;;
71144;SDS011;58812;47.698;17.726;2023-02-28T02:40:42;0.70;;;0.20;;
71144;SDS011;58812;47.698;17.726;2023-02-28T02:45:59;0.55;;;0.10;;
71144;SDS011;58812;47.698;17.726;2023-02-28T02:48:34;0.47;;;0.10;;
71144;SDS011;58812;47.698;17.726;2023-02-28T02:51:03;0.47;;;0.10;;
71144;SDS011;58812;47.698;17.726;2023-02-28T02:53:37;0.60;;;0.10;;
71144;SDS011;58812;47.698;17.726;2023-02-28T02:56:10;0.40;;;0.00;;
71144;SDS011;58812;47.698;17.726;2023-02-28T02:58:39;0.77;;;0.47;;
71144;SDS011;58812;47.698;17.726;2023-02-28T03:01:08;0.50;;;0.10;;
71144;SDS011;58812;47.698;17.726;2023-02-28T03:03:37;0.60;;;0.10;;
71144;SDS011;58812;47.698;17.726;2023-02-28T03:06:03;0.50;;;0.10;;
71144;SDS011;58812;47.698;17.726;2023-02-28T03:08:33;0.53;;;0.10;;
71144;SDS011;58812;47.698;17.726;2023-02-28T03:11:11;1.20;;;1.10;;
71144;SDS011;58812;47.698;17.726;2023-02-28T03:16:23;0.68;;;0.40;;
71144;SDS011;58812;47.698;17.726;2023-02-28T03:24:49;1.35;;;1.00;;
71144;SDS011;58812;47.698;17.726;2023-02-28T03:32:24;0.37;;;0.17;;
71144;SDS011;58812;47.698;17.726;2023-02-28T03:35:06;0.20;;;0.10;;
71144;SDS011;58812;47.698;17.726;2023-02-28T03:37:55;0.40;;;0.10;;
71144;SDS011;58812;47.698;17.726;2023-02-28T03:40:30;0.77;;;0.20;;
71144;SDS011;58812;47.698;17.726;2023-02-28T03:43:02;0.50;;;0.10;;
71144;SDS011;58812;47.698;17.726;2023-02-28T03:45:35;0.40;;;0.10;;
71144;SDS011;58812;47.698;17.726;2023-02-28T03:48:15;0.65;;;0.20;;
71144;SDS011;58812;47.698;17.726;2023-02-28T03:50:43;7.82;;;1.15;;
71144;SDS011;58812;47.698;17.726;2023-02-28T03:53:16;0.60;;;0.20;;
71144;SDS011;58812;47.698;17.726;2023-02-28T03:55:45;0.62;;;0.15;;
71144;SDS011;58812;47.698;17.726;2023-02-28T04:00:45;0.62;;;0.30;;
71144;SDS011;58812;47.698;17.726;2023-02-28T04:03:16;0.50;;;0.10;;
71144;SDS011;58812;47.698;17.726;2023-02-28T04:05:51;1.07;;;0.97;;
71144;SDS011;58812;47.698;17.726;2023-02-28T04:08:18;0.22;;;0.10;;
71144;SDS011;58812;47.698;17.726;2023-02-28T04:10:45;0.30;;;0.10;;
71144;SDS011;58812;47.698;17.726;2023-02-28T04:13:18;0.53;;;0.13;;
71144;SDS011;58812;47.698;17.726;2023-02-28T04:15:43;0.50;;;0.10;;
71144;SDS011;58812;47.698;17.726;2023-02-28T04:18:09;0.50;;;0.10;;
71144;SDS011;58812;47.698;17.726;2023-02-28T04:20:34;0.40;;;0.10;;
71144;SDS011;58812;47.698;17.726;2023-02-28T04:22:59;0.53;;;0.10;;
71144;SDS011;58812;47.698;17.726;2023-02-28T04:25:25;0.60;;;0.10;;
71144;SDS011;58812;47.698;17.726;2023-02-28T04:27:50;0.70;;;0.30;;
71144;SDS011;58812;47.698;17.726;2023-02-28T04:30:16;0.60;;;0.20;;
71144;SDS011;58812;47.698;17.726;2023-02-28T04:32:41;0.60;;;0.20;;
71144;SDS011;58812;47.698;17.726;2023-02-28T04:35:07;0.50;;;0.10;;
71144;SDS011;58812;47.698;17.726;2023-02-28T04:37:32;0.70;;;0.20;;
71144;SDS011;58812;47.698;17.726;2023-02-28T04:40:00;0.70;;;0.15;;
71144;SDS011;58812;47.698;17.726;2023-02-28T04:42:26;0.50;;;0.10;;
71144;SDS011;58812;47.698;17.726;2023-02-28T04:44:51;0.40;;;0.10;;
71144;SDS011;58812;47.698;17.726;2023-02-28T04:47:17;0.45;;;0.10;;
71144;SDS011;58812;47.698;17.726;2023-02-28T04:49:42;0.40;;;0.10;;
71144;SDS011;58812;47.698;17.726;2023-02-28T04:52:08;0.60;;;0.10;;
71144;SDS011;58812;47.698;17.726;2023-02-28T04:54:35;0.68;;;0.20;;
71144;SDS011;58812;47.698;17.726;2023-02-28T04:57:00;0.50;;;0.10;;
71144;SDS011;58812;47.698;17.726;2023-02-28T04:59:26;0.70;;;0.43;;
71144;SDS011;58812;47.698;17.726;2023-02-28T05:01:52;0.60;;;0.13;;
71144;SDS011;58812;47.698;17.726;2023-02-28T05:04:17;0.80;;;0.50;;
71144;SDS011;58812;47.698;17.726;2023-02-28T05:06:43;0.50;;;0.10;;
71144;SDS011;58812;47.698;17.726;2023-02-28T05:09:08;0.50;;;0.10;;
71144;SDS011;58812;47.698;17.726;2023-02-28T05:11:36;0.40;;;0.10;;
71144;SDS011;58812;47.698;17.726;2023-02-28T05:14:04;2.33;;;2.15;;
71144;SDS011;58812;47.698;17.726;2023-02-28T05:16:31;0.50;;;0.10;;
71144;SDS011;58812;47.698;17.726;2023-02-28T05:18:57;0.50;;;0.10;;
71144;SDS011;58812;47.698;17.726;2023-02-28T05:23:49;0.50;;;0.10;;
71144;SDS011;58812;47.698;17.726;2023-02-28T05:26:14;0.70;;;0.20;;
71144;SDS011;58812;47.698;17.726;2023-02-28T05:28:40;0.50;;;0.10;;
71144;SDS011;58812;47.698;17.726;2023-02-28T05:31:05;0.70;;;0.10;;
71144;SDS011;58812;47.698;17.726;2023-02-28T05:33:31;0.60;;;0.10;;
71144;SDS011;58812;47.698;17.726;2023-02-28T05:35:56;0.50;;;0.10;;
71144;SDS011;58812;47.698;17.726;2023-02-28T05:38:21;0.60;;;0.33;;
71144;SDS011;58812;47.698;17.726;2023-02-28T05:40:47;0.65;;;0.13;;
71144;SDS011;58812;47.698;17.726;2023-02-28T05:43:12;0.80;;;0.30;;
71144;SDS011;58812;47.698;17.726;2023-02-28T05:45:38;0.57;;;0.10;;
71144;SDS011;58812;47.698;17.726;2023-02-28T05:48:03;0.50;;;0.10;;
71144;SDS011;58812;47.698;17.726;2023-02-28T05:50:29;0.60;;;0.10;;
71144;SDS011;58812;47.698;17.726;2023-02-28T05:52:54;0.50;;;0.10;;
71144;SDS011;58812;47.698;17.726;2023-02-28T05:55:20;0.70;;;0.50;;
71144;SDS011;58812;47.698;17.726;2023-02-28T05:57:45;0.47;;;0.10;;
71144;SDS011;58812;47.698;17.726;2023-02-28T06:00:11;0.30;;;0.10;;
71144;SDS011;58812;47.698;17.726;2023-02-28T06:02:38;0.40;;;0.10;;
71144;SDS011;58812;47.698;17.726;2023-02-28T06:05:05;0.40;;;0.10;;
71144;SDS011;58812;47.698;17.726;2023-02-28T06:07:36;0.70;;;0.17;;
71144;SDS011;58812;47.698;17.726;2023-02-28T06:10:02;0.52;;;0.30;;
71144;SDS011;58812;47.698;17.726;2023-02-28T06:12:27;0.50;;;0.10;;
71144;SDS011;58812;47.698;17.726;2023-02-28T06:14:53;0.70;;;0.40;;
71144;SDS011;58812;47.698;17.726;2023-02-28T06:17:18;0.40;;;0.10;;
71144;SDS011;58812;47.698;17.726;2023-02-28T06:19:44;1.77;;;0.52;;
71144;SDS011;58812;47.698;17.726;2023-02-28T06:22:09;0.67;;;0.27;;
71144;SDS011;58812;47.698;17.726;2023-02-28T06:24:35;1.10;;;0.90;;
71144;SDS011;58812;47.698;17.726;2023-02-28T06:27:00;1.07;;;0.67;;
71144;SDS011;58812;47.698;17.726;2023-02-28T06:29:30;4.07;;;2.28;;
71144;SDS011;58812;47.698;17.726;2023-02-28T06:31:57;0.60;;;0.20;;
71144;SDS011;58812;47.698;17.726;2023-02-28T06:34:22;3.40;;;3.10;;
71144;SDS011;58812;47.698;17.726;2023-02-28T06:36:49;2.23;;;2.03;;
71144;SDS011;58812;47.698;17.726;2023-02-28T06:39:15;1.70;;;1.05;;
71144;SDS011;58812;47.698;17.726;2023-02-28T06:41:41;0.60;;;0.15;;
71144;SDS011;58812;47.698;17.726;2023-02-28T06:44:11;0.87;;;0.37;;
71144;SDS011;58812;47.698;17.726;2023-02-28T06:46:38;0.50;;;0.10;;
71144;SDS011;58812;47.698;17.726;2023-02-28T06:49:07;3.17;;;2.97;;
71144;SDS011;58812;47.698;17.726;2023-02-28T06:51:34;2.30;;;1.13;;
71144;SDS011;58812;47.698;17.726;2023-02-28T06:54:00;5.55;;;2.90;;
71144;SDS011;58812;47.698;17.726;2023-02-28T06:56:26;1.52;;;1.20;;
71144;SDS011;58812;47.698;17.726;2023-02-28T06:58:51;0.70;;;0.30;;
71144;SDS011;58812;47.698;17.726;2023-02-28T07:01:21;0.50;;;0.22;;
71144;SDS011;58812;47.698;17.726;2023-02-28T07:03:49;0.60;;;0.17;;
71144;SDS011;58812;47.698;17.726;2023-02-28T07:06:17;1.20;;;1.00;;
71144;SDS011;58812;47.698;17.726;2023-02-28T07:08:44;0.50;;;0.10;;
71144;SDS011;58812;47.698;17.726;2023-02-28T07:11:10;1.08;;;0.65;;
71144;SDS011;58812;47.698;17.726;2023-02-28T07:13:36;0.50;;;0.10;;
71144;SDS011;58812;47.698;17.726;2023-02-28T07:16:05;0.50;;;0.10;;
71144;SDS011;58812;47.698;17.726;2023-02-28T07:18:33;0.60;;;0.17;;
71144;SDS011;58812;47.698;17.726;2023-02-28T07:21:01;0.60;;;0.20;;
71144;SDS011;58812;47.698;17.726;2023-02-28T07:23:27;0.60;;;0.17;;
71144;SDS011;58812;47.698;17.726;2023-02-28T07:25:53;0.57;;;0.10;;
71144;SDS011;58812;47.698;17.726;2023-02-28T07:28:18;0.60;;;0.20;;
71144;SDS011;58812;47.698;17.726;2023-02-28T07:30:44;0.53;;;0.10;;
71144;SDS011;58812;47.698;17.726;2023-02-28T07:33:09;0.50;;;0.10;;
71144;SDS011;58812;47.698;17.726;2023-02-28T07:35:35;0.40;;;0.10;;
71144;SDS011;58812;47.698;17.726;2023-02-28T07:38:01;0.57;;;0.10;;
71144;SDS011;58812;47.698;17.726;2023-02-28T07:40:28;0.53;;;0.20;;
71144;SDS011;58812;47.698;17.726;2023-02-28T07:42:53;0.73;;;0.20;;
71144;SDS011;58812;47.698;17.726;2023-02-28T07:45:19;0.40;;;0.10;;
71144;SDS011;58812;47.698;17.726;2023-02-28T07:47:44;0.65;;;0.17;;
71144;SDS011;58812;47.698;17.726;2023-02-28T07:50:12;1.57;;;1.43;;
71144;SDS011;58812;47.698;17.726;2023-02-28T07:52:38;0.68;;;0.17;;
71144;SDS011;58812;47.698;17.726;2023-02-28T07:55:05;0.70;;;0.40;;
71144;SDS011;58812;47.698;17.726;2023-02-28T07:57:32;2.35;;;1.65;;
71144;SDS011;58812;47.698;17.726;2023-02-28T07:59:57;2.10;;;1.70;;
71144;SDS011;58812;47.698;17.726;2023-02-28T08:02:23;0.60;;;0.27;;
71144;SDS011;58812;47.698;17.726;2023-02-28T08:04:48;0.57;;;0.10;;
71144;SDS011;58812;47.698;17.726;2023-02-28T08:07:15;0.80;;;0.40;;
71144;SDS011;58812;47.698;17.726;2023-02-28T08:09:41;0.90;;;0.62;;
71144;SDS011;58812;47.698;17.726;2023-02-28T08:12:07;0.52;;;0.10;;
71144;SDS011;58812;47.698;17.726;2023-02-28T08:14:33;0.65;;;0.10;;
71144;SDS011;58812;47.698;17.726;2023-02-28T08:16:59;0.60;;;0.10;;
71144;SDS011;58812;47.698;17.726;2023-02-28T08:19:24;1.25;;;0.73;;
71144;SDS011;58812;47.698;17.726;2023-02-28T08:21:50;0.50;;;0.10;;
71144;SDS011;58812;47.698;17.726;2023-02-28T08:24:15;2.40;;;0.77;;
71144;SDS011;58812;47.698;17.726;2023-02-28T08:26:41;0.70;;;0.20;;
71144;SDS011;58812;47.698;17.726;2023-02-28T08:29:06;0.80;;;0.40;;
71144;SDS011;58812;47.698;17.726;2023-02-28T08:31:31;0.60;;;0.10;;
71144;SDS011;58812;47.698;17.726;2023-02-28T08:33:57;0.50;;;0.10;;
71144;SDS011;58812;47.698;17.726;2023-02-28T08:36:24;0.75;;;0.65;;
71144;SDS011;58812;47.698;17.726;2023-02-28T08:38:50;0.60;;;0.10;;
71144;SDS011;58812;47.698;17.726;2023-02-28T08:41:16;0.70;;;0.20;;
71144;SDS011;58812;47.698;17.726;2023-02-28T08:43:41;0.67;;;0.30;;
71144;SDS011;58812;47.698;17.726;2023-02-28T08:46:07;0.52;;;0.10;;
71144;SDS011;58812;47.698;17.726;2023-02-28T08:48:36;0.50;;;0.10;;
71144;SDS011;58812;47.698;17.726;2023-02-28T08:51:06;0.97;;;0.73;;
71144;SDS011;58812;47.698;17.726;2023-02-28T08:53:34;2.15;;;0.68;;
71144;SDS011;58812;47.698;17.726;2023-02-28T08:56:04;1.30;;;0.73;;
71144;SDS011;58812;47.698;17.726;2023-02-28T08:58:32;0.60;;;0.22;;
71144;SDS011;58812;47.698;17.726;2023-02-28T09:00:57;0.67;;;0.20;;
71144;SDS011;58812;47.698;17.726;2023-02-28T09:03:23;3.00;;;2.27;;
71144;SDS011;58812;47.698;17.726;2023-02-28T09:05:59;1.10;;;0.62;;
71144;SDS011;58812;47.698;17.726;2023-02-28T09:08:26;0.88;;;0.20;;
71144;SDS011;58812;47.698;17.726;2023-02-28T09:10:55;0.70;;;0.30;;
71144;SDS011;58812;47.698;17.726;2023-02-28T09:13:22;0.77;;;0.28;;
71144;SDS011;58812;47.698;17.726;2023-02-28T09:15:49;0.50;;;0.10;;
71144;SDS011;58812;47.698;17.726;2023-02-28T09:18:14;1.55;;;1.37;;
71144;SDS011;58812;47.698;17.726;2023-02-28T09:20:40;0.70;;;0.30;;
71144;SDS011;58812;47.698;17.726;2023-02-28T09:23:07;0.60;;;0.10;;
71144;SDS011;58812;47.698;17.726;2023-02-28T09:25:34;0.70;;;0.20;;
71144;SDS011;58812;47.698;17.726;2023-02-28T09:28:00;0.82;;;0.40;;
71144;SDS011;58812;47.698;17.726;2023-02-28T09:30:25;1.07;;;0.43;;
71144;SDS011;58812;47.698;17.726;2023-02-28T09:32:51;0.77;;;0.30;;
71144;SDS011;58812;47.698;17.726;2023-02-28T09:35:20;2.15;;;1.27;;
71144;SDS011;58812;47.698;17.726;2023-02-28T09:37:47;0.82;;;0.28;;
71144;SDS011;58812;47.698;17.726;2023-02-28T09:40:13;1.83;;;0.98;;
71144;SDS011;58812;47.698;17.726;2023-02-28T09:42:42;4.20;;;1.85;;
71144;SDS011;58812;47.698;17.726;2023-02-28T09:48:24;0.62;;;0.13;;
71144;SDS011;58812;47.698;17.726;2023-02-28T09:50:59;2.90;;;1.85;;
71144;SDS011;58812;47.698;17.726;2023-02-28T09:53:29;0.85;;;0.22;;
71144;SDS011;58812;47.698;17.726;2023-02-28T10:07:02;0.60;;;0.17;;
71144;SDS011;58812;47.698;17.726;2023-02-28T10:09:42;2.15;;;0.40;;
71144;SDS011;58812;47.698;17.726;2023-02-28T10:12:11;0.87;;;0.30;;
71144;SDS011;58812;47.698;17.726;2023-02-28T10:14:39;3.42;;;1.85;;
71144;SDS011;58812;47.698;17.726;2023-02-28T10:17:11;1.48;;;1.20;;
71144;SDS011;58812;47.698;17.726;2023-02-28T10:22:50;0.95;;;0.50;;
71144;SDS011;58812;47.698;17.726;2023-02-28T10:25:28;0.70;;;0.20;;
71144;SDS011;58812;47.698;17.726;2023-02-28T10:27:59;1.00;;;0.30;;
71144;SDS011;58812;47.698;17.726;2023-02-28T10:30:30;0.80;;;0.30;;
71144;SDS011;58812;47.698;17.726;2023-02-28T10:32:56;0.70;;;0.30;;
71144;SDS011;58812;47.698;17.726;2023-02-28T10:35:22;1.23;;;1.03;;
71144;SDS011;58812;47.698;17.726;2023-02-28T10:37:51;0.80;;;0.30;;
71144;SDS011;58812;47.698;17.726;2023-02-28T10:42:57;1.13;;;0.67;;
71144;SDS011;58812;47.698;17.726;2023-02-28T10:45:30;0.93;;;0.47;;
71144;SDS011;58812;47.698;17.726;2023-02-28T10:48:01;1.60;;;1.12;;
71144;SDS011;58812;47.698;17.726;2023-02-28T10:58:51;1.07;;;0.57;;
71144;SDS011;58812;47.698;17.726;2023-02-28T11:01:23;0.60;;;0.20;;
71144;SDS011;58812;47.698;17.726;2023-02-28T11:03:55;0.70;;;0.20;;
71144;SDS011;58812;47.698;17.726;2023-02-28T11:06:32;0.70;;;0.20;;
71144;SDS011;58812;47.698;17.726;2023-02-28T11:11:27;0.80;;;0.30;;
71144;SDS011;58812;47.698;17.726;2023-02-28T11:13:57;3.17;;;1.20;;
71144;SDS011;58812;47.698;17.726;2023-02-28T11:16:33;1.02;;;0.45;;
71144;SDS011;58812;47.698;17.726;2023-02-28T11:19:02;1.02;;;0.60;;
71144;SDS011;58812;47.698;17.726;2023-02-28T11:21:33;1.52;;;0.60;;
71144;SDS011;58812;47.698;17.726;2023-02-28T11:24:18;1.43;;;1.23;;
71144;SDS011;58812;47.698;17.726;2023-02-28T11:26:47;1.17;;;0.45;;
71144;SDS011;58812;47.698;17.726;2023-02-28T11:29:24;1.42;;;0.88;;
71144;SDS011;58812;47.698;17.726;2023-02-28T11:34:26;1.35;;;0.73;;
71144;SDS011;58812;47.698;17.726;2023-02-28T11:36:56;1.10;;;0.63;;
71144;SDS011;58812;47.698;17.726;2023-02-28T11:39:25;0.70;;;0.20;;
71144;SDS011;58812;47.698;17.726;2023-02-28T11:41:58;0.70;;;0.20;;
71144;SDS011;58812;47.698;17.726;2023-02-28T11:52:59;0.70;;;0.20;;
71144;SDS011;58812;47.698;17.726;2023-02-28T11:55:39;1.17;;;0.90;;
71144;SDS011;58812;47.698;17.726;2023-02-28T12:11:51;1.20;;;0.60;;
71144;SDS011;58812;47.698;17.726;2023-02-28T12:17:17;1.40;;;0.40;;
71144;SDS011;58812;47.698;17.726;2023-02-28T12:28:38;1.05;;;0.50;;
71144;SDS011;58812;47.698;17.726;2023-02-28T12:31:12;0.70;;;0.20;;
71144;SDS011;58812;47.698;17.726;2023-02-28T12:33:48;0.57;;;0.20;;
71144;SDS011;58812;47.698;17.726;2023-02-28T12:36:18;0.73;;;0.25;;
71144;SDS011;58812;47.698;17.726;2023-02-28T12:41:26;1.20;;;0.62;;
71144;SDS011;58812;47.698;17.726;2023-02-28T12:44:09;0.70;;;0.20;;
71144;SDS011;58812;47.698;17.726;2023-02-28T12:46:44;1.00;;;0.50;;
71144;SDS011;58812;47.698;17.726;2023-02-28T12:49:18;1.08;;;0.80;;
71144;SDS011;58812;47.698;17.726;2023-02-28T12:51:49;1.95;;;0.50;;
71144;SDS011;58812;47.698;17.726;2023-02-28T12:57:18;1.93;;;1.23;;
71144;SDS011;58812;47.698;17.726;2023-02-28T13:02:22;0.82;;;0.37;;
71144;SDS011;58812;47.698;17.726;2023-02-28T13:05:00;0.90;;;0.30;;
71144;SDS011;58812;47.698;17.726;2023-02-28T13:13:19;0.90;;;0.47;;
71144;SDS011;58812;47.698;17.726;2023-02-28T13:18:42;1.35;;;1.25;;
71144;SDS011;58812;47.698;17.726;2023-02-28T13:21:28;0.88;;;0.30;;
71144;SDS011;58812;47.698;17.726;2023-02-28T13:31:26;1.60;;;0.73;;
71144;SDS011;58812;47.698;17.726;2023-02-28T13:38:52;1.25;;;0.55;;
71144;SDS011;58812;47.698;17.726;2023-02-28T13:51:50;0.80;;;0.35;;
71144;SDS011;58812;47.698;17.726;2023-02-28T13:54:30;1.50;;;0.93;;
71144;SDS011;58812;47.698;17.726;2023-02-28T13:57:19;0.73;;;0.22;;
71144;SDS011;58812;47.698;17.726;2023-02-28T13:59:54;0.80;;;0.40;;
71144;SDS011;58812;47.698;17.726;2023-02-28T14:02:37;3.35;;;1.30;;
71144;SDS011;58812;47.698;17.726;2023-02-28T14:05:19;2.20;;;1.45;;
71144;SDS011;58812;47.698;17.726;2023-02-28T14:07:57;0.60;;;0.20;;
71144;SDS011;58812;47.698;17.726;2023-02-28T14:20:41;0.80;;;0.20;;
71144;SDS011;58812;47.698;17.726;2023-02-28T14:31:37;1.17;;;0.50;;
71144;SDS011;58812;47.698;17.726;2023-02-28T14:37:00;1.15;;;0.70;;
71144;SDS011;58812;47.698;17.726;2023-02-28T14:39:27;0.80;;;0.30;;
71144;SDS011;58812;47.698;17.726;2023-02-28T14:41:56;0.80;;;0.30;;
71144;SDS011;58812;47.698;17.726;2023-02-28T14:44:27;1.48;;;1.33;;
71144;SDS011;58812;47.698;17.726;2023-02-28T14:46:56;1.73;;;1.03;;
71144;SDS011;58812;47.698;17.726;2023-02-28T14:49:28;0.82;;;0.30;;
71144;SDS011;58812;47.698;17.726;2023-02-28T14:52:03;1.08;;;0.52;;
71144;SDS011;58812;47.698;17.726;2023-02-28T14:54:34;1.00;;;0.30;;
71144;SDS011;58812;47.698;17.726;2023-02-28T14:57:01;2.97;;;0.65;;
71144;SDS011;58812;47.698;17.726;2023-02-28T15:02:16;1.20;;;0.52;;
71144;SDS011;58812;47.698;17.726;2023-02-28T15:04:52;1.10;;;0.50;;
71144;SDS011;58812;47.698;17.726;2023-02-28T15:07:19;2.15;;;1.25;;
71144;SDS011;58812;47.698;17.726;2023-02-28T15:09:44;0.90;;;0.40;;
71144;SDS011;58812;47.698;17.726;2023-02-28T15:12:13;1.73;;;0.57;;
71144;SDS011;58812;47.698;17.726;2023-02-28T15:14:42;1.08;;;0.35;;
71144;SDS011;58812;47.698;17.726;2023-02-28T15:17:11;0.80;;;0.30;;
71144;SDS011;58812;47.698;17.726;2023-02-28T15:19:48;0.60;;;0.20;;
71144;SDS011;58812;47.698;17.726;2023-02-28T15:22:18;0.98;;;0.68;;
71144;SDS011;58812;47.698;17.726;2023-02-28T15:24:49;2.20;;;2.00;;
71144;SDS011;58812;47.698;17.726;2023-02-28T15:29:46;0.90;;;0.65;;
71144;SDS011;58812;47.698;17.726;2023-02-28T15:32:37;0.80;;;0.43;;
71144;SDS011;58812;47.698;17.726;2023-02-28T15:35:17;1.15;;;0.50;;
71144;SDS011;58812;47.698;17.726;2023-02-28T15:37:57;9.47;;;1.73;;
71144;SDS011;58812;47.698;17.726;2023-02-28T15:43:45;0.60;;;0.20;;
71144;SDS011;58812;47.698;17.726;2023-02-28T15:46:04;1.00;;;0.50;;
71144;SDS011;58812;47.698;17.726;2023-02-28T15:48:42;1.10;;;0.43;;
71144;SDS011;58812;47.698;17.726;2023-02-28T15:51:24;1.00;;;0.77;;
71144;SDS011;58812;47.698;17.726;2023-02-28T15:53:57;0.68;;;0.20;;
71144;SDS011;58812;47.698;17.726;2023-02-28T15:56:26;1.23;;;0.55;;
71144;SDS011;58812;47.698;17.726;2023-02-28T15:58:55;0.90;;;0.30;;
71144;SDS011;58812;47.698;17.726;2023-02-28T16:01:28;0.90;;;0.40;;
71144;SDS011;58812;47.698;17.726;2023-02-28T16:03:59;1.13;;;0.53;;
71144;SDS011;58812;47.698;17.726;2023-02-28T16:09:03;0.73;;;0.40;;
71144;SDS011;58812;47.698;17.726;2023-02-28T16:11:33;1.15;;;0.47;;
71144;SDS011;58812;47.698;17.726;2023-02-28T16:14:02;0.70;;;0.20;;
71144;SDS011;58812;47.698;17.726;2023-02-28T16:16:28;0.90;;;0.40;;
71144;SDS011;58812;47.698;17.726;2023-02-28T16:18:53;1.30;;;1.03;;
71144;SDS011;58812;47.698;17.726;2023-02-28T16:21:19;3.03;;;1.10;;
71144;SDS011;58812;47.698;17.726;2023-02-28T16:23:45;2.55;;;1.95;;
71144;SDS011;58812;47.698;17.726;2023-02-28T16:26:16;1.43;;;0.90;;
71144;SDS011;58812;47.698;17.726;2023-02-28T16:28:46;1.48;;;0.88;;
71144;SDS011;58812;47.698;17.726;2023-02-28T16:31:11;2.83;;;1.20;;
71144;SDS011;58812;47.698;17.726;2023-02-28T16:33:41;1.40;;;0.62;;
71144;SDS011;58812;47.698;17.726;2023-02-28T16:36:19;1.17;;;0.57;;
71144;SDS011;58812;47.698;17.726;2023-02-28T16:38:49;0.88;;;0.30;;
71144;SDS011;58812;47.698;17.726;2023-02-28T16:41:16;3.70;;;1.90;;
71144;SDS011;58812;47.698;17.726;2023-02-28T16:43:46;2.55;;;1.77;;
71144;SDS011;58812;47.698;17.726;2023-02-28T16:46:14;1.37;;;0.88;;
71144;SDS011;58812;47.698;17.726;2023-02-28T16:48:40;5.23;;;3.33;;
71144;SDS011;58812;47.698;17.726;2023-02-28T16:51:08;1.42;;;1.05;;
71144;SDS011;58812;47.698;17.726;2023-02-28T16:53:37;7.03;;;4.75;;
71144;SDS011;58812;47.698;17.726;2023-02-28T16:56:03;8.00;;;2.70;;
71144;SDS011;58812;47.698;17.726;2023-02-28T16:58:29;1.83;;;1.60;;
71144;SDS011;58812;47.698;17.726;2023-02-28T17:00:54;2.87;;;1.43;;
71144;SDS011;58812;47.698;17.726;2023-02-28T17:03:24;9.93;;;3.80;;
71144;SDS011;58812;47.698;17.726;2023-02-28T17:05:52;4.90;;;4.25;;
71144;SDS011;58812;47.698;17.726;2023-02-28T17:08:18;4.30;;;3.13;;
71144;SDS011;58812;47.698;17.726;2023-02-28T17:10:44;24.02;;;7.00;;
71144;SDS011;58812;47.698;17.726;2023-02-28T17:13:10;3.47;;;2.87;;
71144;SDS011;58812;47.698;17.726;2023-02-28T17:15:35;6.07;;;3.77;;
71144;SDS011;58812;47.698;17.726;2023-02-28T17:18:03;6.25;;;4.97;;
71144;SDS011;58812;47.698;17.726;2023-02-28T17:20:30;4.18;;;3.72;;
71144;SDS011;58812;47.698;17.726;2023-02-28T17:22:56;2.28;;;1.77;;
71144;SDS011;58812;47.698;17.726;2023-02-28T17:25:23;4.87;;;4.43;;
71144;SDS011;58812;47.698;17.726;2023-02-28T17:27:49;5.87;;;4.60;;
71144;SDS011;58812;47.698;17.726;2023-02-28T17:30:19;8.73;;;5.07;;
71144;SDS011;58812;47.698;17.726;2023-02-28T17:32:47;6.82;;;2.85;;
71144;SDS011;58812;47.698;17.726;2023-02-28T17:35:13;4.87;;;3.33;;
71144;SDS011;58812;47.698;17.726;2023-02-28T17:37:40;1.60;;;1.33;;
71144;SDS011;58812;47.698;17.726;2023-02-28T17:40:06;7.75;;;3.78;;
71144;SDS011;58812;47.698;17.726;2023-02-28T17:42:39;3.90;;;2.35;;
71144;SDS011;58812;47.698;17.726;2023-02-28T17:45:05;1.93;;;1.57;;